Time;durP1;ratioP1;P1;durP2;ratioP2;P2;SDS_P1;SDS_P2;PMS_P1;PMS_P2;Temp;Humidity;BMP_temperature;BMP_pressure;BME280_temperature;BME280_humidity;BME280_pressure;Samples;Min_cycle;Max_cycle;Signal;HPM_P1;HPM_P2
2022/07/05 00:01:15;;;;;;;3.90;3.55;;;;;;;21.95;53.24;64273.94;5026694;28;20245;-74
2022/07/05 00:03:42;;;;;;;4.32;3.40;;;;;;;21.77;55.35;64255.66;5025001;28;20372;-74
2022/07/05 00:06:10;;;;;;;4.38;4.05;;;;;;;21.78;55.96;64259.81;5005845;28;20242;-73
2022/07/05 00:08:37;;;;;;;4.60;4.13;;;;;;;21.63;56.93;64238.41;5006378;28;20223;-74
2022/07/05 00:11:04;;;;;;;5.68;3.80;;;;;;;21.53;57.79;64230.56;5009028;28;20546;-74
2022/07/05 00:13:30;;;;;;;3.80;3.60;;;;;;;21.48;56.49;64225.34;5009469;28;20234;-74
2022/07/05 00:15:57;;;;;;;3.75;3.55;;;;;;;21.48;56.07;64228.47;5010176;28;20242;-74
2022/07/05 00:18:24;;;;;;;4.35;3.83;;;;;;;21.53;56.73;64231.09;5009031;28;20226;-73
2022/07/05 00:20:51;;;;;;;4.32;3.97;;;;;;;21.53;57.37;64231.09;5009143;28;20214;-73
2022/07/05 00:23:19;;;;;;;3.95;3.65;;;;;;;21.56;56.05;64231.09;5007452;28;20199;-73
2022/07/05 00:25:46;;;;;;;3.33;3.03;;;;;;;21.49;54.35;64226.91;5007869;28;20290;-73
2022/07/05 00:28:15;;;;;;;3.15;2.95;;;;;;;21.55;52.26;64233.16;5007881;28;20199;-73
2022/07/05 00:30:42;;;;;;;2.90;2.80;;;;;;;21.51;51.97;64231.06;5007325;28;20463;-74
2022/07/05 00:33:08;;;;;;;3.15;2.95;;;;;;;21.46;52.45;64223.78;5006687;28;20201;-74
2022/07/05 00:35:36;;;;;;;4.70;3.42;;;;;;;21.31;53.20;64208.09;5006393;28;20675;-73
2022/07/05 00:38:03;;;;;;;4.13;2.90;;;;;;;21.30;54.00;64203.94;5007082;28;20205;-76
2022/07/05 00:40:31;;;;;;;3.33;3.08;;;;;;;21.31;53.76;64208.09;5005333;28;20222;-75
2022/07/05 00:42:58;;;;;;;3.75;2.95;;;;;;;21.27;54.42;64203.41;5005979;28;20201;-74
2022/07/05 00:45:25;;;;;;;3.47;3.28;;;;;;;21.33;54.81;64209.69;5005942;28;20222;-73
2022/07/05 00:47:52;;;;;;;4.05;3.47;;;;;;;21.27;55.22;64206.00;5006181;28;20514;-74
2022/07/05 00:50:19;;;;;;;5.28;3.15;;;;;;;21.23;56.20;64199.22;5006767;28;20199;-73
2022/07/05 00:52:46;;;;;;;3.30;3.10;;;;;;;21.23;57.37;64201.81;5005621;28;20195;-73
2022/07/05 00:55:13;;;;;;;3.45;3.25;;;;;;;21.18;57.97;64194.53;5005400;28;20230;-74
2022/07/05 00:57:41;;;;;;;3.47;3.28;;;;;;;21.12;58.18;64188.25;5005800;28;20207;-73
2022/07/05 01:00:09;;;;;;;3.35;3.22;;;;;;;21.12;58.14;64188.25;5006094;28;20195;-74
2022/07/05 01:02:36;;;;;;;4.22;3.88;;;;;;;20.95;60.75;64167.91;5025413;28;20249;-74
2022/07/05 01:05:05;;;;;;;4.65;3.53;;;;;;;20.72;60.68;64146.47;5023120;28;20268;-74
2022/07/05 01:07:32;;;;;;;4.25;2.92;;;;;;;20.76;61.15;64148.06;5024526;28;20253;-73
2022/07/05 01:09:59;;;;;;;3.63;3.42;;;;;;;20.74;62.09;64148.03;5024579;28;20204;-74
2022/07/05 01:12:26;;;;;;;3.83;3.53;;;;;;;20.69;62.32;64140.78;5024334;28;20194;-74
2022/07/05 01:14:56;;;;;;;3.72;3.53;;;;;;;20.66;62.63;64142.81;5025184;28;20201;-74
2022/07/05 01:17:24;;;;;;;4.43;4.03;;;;;;;20.53;63.20;64129.25;5024783;28;20255;-74
2022/07/05 01:19:51;;;;;;;4.10;3.80;;;;;;;20.46;62.75;64119.88;5023988;28;20198;-73
2022/07/05 01:22:20;;;;;;;3.70;3.22;;;;;;;20.45;63.60;64121.41;5024430;28;20218;-73
2022/07/05 01:24:51;;;;;;;8.88;3.95;;;;;;;20.38;63.54;64116.69;5024047;28;20198;-73
2022/07/05 01:27:18;;;;;;;6.85;3.70;;;;;;;20.47;63.08;64120.91;5025183;28;20245;-74
2022/07/05 01:29:45;;;;;;;6.32;3.70;;;;;;;20.46;63.37;64122.44;5024494;28;20198;-73
2022/07/05 01:32:13;;;;;;;4.35;3.72;;;;;;;20.36;62.80;64109.41;5023979;28;20218;-73
2022/07/05 01:34:40;;;;;;;4.53;4.00;;;;;;;20.40;64.22;64116.19;5024747;28;20198;-74
2022/07/05 01:37:09;;;;;;;3.75;3.45;;;;;;;20.39;63.98;64112.56;5023926;28;20304;-73
2022/07/05 01:39:37;;;;;;;4.10;3.80;;;;;;;20.40;64.06;64113.06;5024079;28;20232;-74
2022/07/05 01:42:06;;;;;;;4.32;4.00;;;;;;;20.37;64.26;64110.47;5024210;28;20226;-74
2022/07/05 01:44:32;;;;;;;6.82;4.10;;;;;;;20.35;64.60;64105.78;5024623;28;20218;-74
2022/07/05 01:47:05;;;;;;;5.10;4.70;;;;;;;20.39;66.61;64109.97;5024818;28;20218;-74
2022/07/05 01:49:36;;;;;;;4.10;3.90;;;;;;;20.40;67.27;64113.06;5024161;28;20529;-74
2022/07/05 01:52:09;;;;;;;4.22;3.88;;;;;;;20.36;68.68;64109.41;5023868;28;20530;-74
2022/07/05 01:54:37;;;;;;;4.20;3.90;;;;;;;20.32;69.83;64096.97;5023981;28;20193;-73
2022/07/05 01:57:07;;;;;;;4.82;4.50;;;;;;;20.28;70.46;64095.91;5024538;28;20237;-73
2022/07/05 01:59:34;;;;;;;3.90;3.70;;;;;;;20.31;70.17;64101.59;5024114;28;20213;-73
2022/07/05 02:02:01;;;;;;;4.57;4.28;;;;;;;20.13;72.75;64084.88;5023801;28;20221;-74
2022/07/05 02:04:30;;;;;;;4.70;4.38;;;;;;;19.64;76.17;64031.19;5023907;28;20384;-74
2022/07/05 02:06:57;;;;;;;4.38;3.97;;;;;;;19.85;74.45;64058.25;5023956;28;20284;-74
2022/07/05 02:09:24;;;;;;;4.35;4.05;;;;;;;19.88;72.57;64056.72;5024111;28;20202;-72
2022/07/05 02:11:51;;;;;;;4.78;4.38;;;;;;;19.85;73.01;64053.59;5024000;28;20413;-73
2022/07/05 02:14:19;;;;;;;6.88;3.70;;;;;;;19.83;72.66;64056.16;5024047;28;20236;-73
2022/07/05 02:16:46;;;;;;;5.00;4.63;;;;;;;19.85;72.49;64058.78;5024056;28;20234;-74
2022/07/05 02:19:13;;;;;;;4.63;4.03;;;;;;;19.79;73.47;64052.00;5024286;28;20198;-74
2022/07/05 02:21:40;;;;;;;4.50;4.22;;;;;;;19.74;74.02;64041.59;5024855;28;20242;-74
2022/07/05 02:24:08;;;;;;;4.50;4.20;;;;;;;19.74;73.89;64044.72;5026218;28;20390;-73
2022/07/05 02:26:35;;;;;;;11.32;4.50;;;;;;;19.73;73.29;64043.66;5024775;28;20404;-73
2022/07/05 02:29:03;;;;;;;4.70;4.40;;;;;;;19.72;73.63;64040.03;5023792;28;20213;-73
2022/07/05 02:31:32;;;;;;;4.50;4.30;;;;;;;19.69;73.62;64036.91;5024035;28;20218;-74
2022/07/05 02:34:00;;;;;;;5.13;4.35;;;;;;;19.79;74.21;64052.50;5023544;28;20197;-76
2022/07/05 02:36:27;;;;;;;5.15;4.85;;;;;;;19.75;74.94;64048.34;5023967;28;20260;-74
2022/07/05 02:38:54;;;;;;;5.20;4.80;;;;;;;19.70;75.98;64040.53;5023729;28;20204;-74
2022/07/05 02:41:21;;;;;;;7.82;4.47;;;;;;;19.67;76.43;64032.25;5023598;28;20257;-74
2022/07/05 02:43:48;;;;;;;6.45;4.90;;;;;;;19.66;76.78;64033.78;5023380;28;20228;-74
2022/07/05 02:46:15;;;;;;;4.53;4.30;;;;;;;19.63;77.82;64030.66;5023557;28;20225;-74
2022/07/05 02:48:43;;;;;;;4.85;4.43;;;;;;;19.69;76.41;64033.81;5024611;28;20205;-74
2022/07/05 02:51:10;;;;;;;6.63;4.70;;;;;;;19.67;75.79;64037.41;5027765;28;20388;-75
2022/07/05 02:53:37;;;;;;;4.85;4.55;;;;;;;19.73;77.32;64043.66;5028510;28;20201;-75
2022/07/05 02:56:05;;;;;;;6.15;4.53;;;;;;;19.72;77.31;64042.63;5024821;28;20233;-74
2022/07/05 02:58:32;;;;;;;4.40;3.75;;;;;;;19.74;77.62;64044.72;5024860;28;20187;-74
2022/07/05 03:01:02;;;;;;;4.55;4.20;;;;;;;19.69;76.27;64039.47;5025198;28;20233;-78
2022/07/05 03:03:29;;;;;;;7.13;6.53;;;;;;;19.74;73.97;64047.31;5026410;28;20190;-73
2022/07/05 03:05:58;;;;;;;29.05;24.13;;;;;;;19.81;72.99;64052.00;5008017;28;20423;-74
2022/07/05 03:08:25;;;;;;;5.32;4.78;;;;;;;19.84;72.68;64054.63;5008077;28;20202;-74
2022/07/05 03:10:52;;;;;;;8.02;4.53;;;;;;;19.66;74.00;64033.78;5008348;28;20537;-75
2022/07/05 03:13:19;;;;;;;4.35;4.10;;;;;;;19.61;75.77;64030.63;5007558;28;20195;-74
2022/07/05 03:15:46;;;;;;;4.68;4.28;;;;;;;19.51;76.47;64021.25;5007488;28;20225;-73
2022/07/05 03:18:13;;;;;;;16.38;13.10;;;;;;;19.54;77.57;64026.94;5007443;28;20212;-74
2022/07/05 03:20:40;;;;;;;4.75;4.35;;;;;;;19.57;78.14;64026.47;5006959;28;20257;-74
2022/07/05 03:23:08;;;;;;;5.07;4.68;;;;;;;19.59;76.68;64023.88;5007059;28;20278;-74
2022/07/05 03:25:35;;;;;;;6.53;4.50;;;;;;;19.62;76.11;64029.63;5007090;28;20222;-74
2022/07/05 03:28:02;;;;;;;4.88;4.43;;;;;;;19.68;75.42;64041.03;5006994;28;20203;-73
2022/07/05 03:30:28;;;;;;;4.60;4.20;;;;;;;19.74;75.78;64046.78;5007409;28;20219;-73
2022/07/05 03:32:55;;;;;;;49.67;35.65;;;;;;;19.82;75.91;64052.53;5007355;28;20195;-75
2022/07/05 03:35:22;;;;;;;11.00;8.57;;;;;;;19.93;76.00;64064.53;5006598;28;20219;-74
2022/07/05 03:37:49;;;;;;;11.85;10.20;;;;;;;20.01;75.57;64064.59;5006685;28;20226;-73
2022/07/05 03:40:17;;;;;;;6.85;6.35;;;;;;;20.09;75.36;64078.63;5006835;28;20203;-74
2022/07/05 03:42:44;;;;;;;4.72;4.32;;;;;;;20.15;74.28;64090.06;5006385;28;20221;-73
2022/07/05 03:45:11;;;;;;;5.40;5.00;;;;;;;20.22;74.07;64092.22;5006658;28;20199;-74
2022/07/05 03:47:38;;;;;;;51.15;38.65;;;;;;;20.41;74.09;64114.13;5006448;28;20378;-73
2022/07/05 03:50:06;;;;;;;49.88;31.08;;;;;;;20.51;74.76;64127.66;5006444;28;20203;-74
2022/07/05 03:52:33;;;;;;;4.65;4.35;;;;;;;20.63;72.86;64140.19;5006555;28;20199;-74
2022/07/05 03:55:00;;;;;;;4.22;3.70;;;;;;;20.70;72.64;64146.97;5006051;28;20199;-74
2022/07/05 03:57:29;;;;;;;4.72;4.00;;;;;;;20.81;71.18;64152.78;5006090;28;20234;-74
2022/07/05 03:59:57;;;;;;;4.03;3.70;;;;;;;20.91;69.61;64163.72;5007651;28;20195;-74
2022/07/05 04:02:26;;;;;;;6.00;4.00;;;;;;;21.03;67.56;64175.75;5009713;28;20210;-75
2022/07/05 04:04:54;;;;;;;4.63;4.05;;;;;;;20.92;71.85;64166.84;5022809;28;20221;-77
2022/07/05 04:07:21;;;;;;;8.45;3.72;;;;;;;20.91;73.93;64160.63;5030983;28;20226;-76
2022/07/05 04:09:48;;;;;;;4.22;3.83;;;;;;;21.02;73.36;64180.41;5028742;28;20214;-77
2022/07/05 04:12:15;;;;;;;4.05;3.65;;;;;;;21.14;72.95;64189.84;5025908;28;20221;-74
2022/07/05 04:14:44;;;;;;;6.65;3.85;;;;;;;21.32;70.99;64209.16;5026514;28;20202;-74
2022/07/05 04:17:11;;;;;;;3.80;3.60;;;;;;;21.44;71.17;64219.09;5026861;28;20413;-74
2022/07/05 04:19:43;;;;;;;4.55;4.22;;;;;;;21.26;77.92;64210.16;5027502;28;20197;-77
2022/07/05 04:22:11;;;;;;;5.60;4.75;;;;;;;21.18;78.41;64194.00;5010242;28;20227;-76
2022/07/05 04:27:19;;;;;;;4.55;4.25;;;;;;;21.10;71.37;64183.06;5014544;28;20214;-74
2022/07/05 04:29:49;;;;;;;4.13;3.88;;;;;;;20.98;69.37;64173.66;5026201;28;20224;-74
2022/07/05 04:32:16;;;;;;;4.50;4.15;;;;;;;21.04;68.09;64179.38;5026749;28;20214;-75
2022/07/05 04:34:43;;;;;;;4.43;4.13;;;;;;;21.17;67.10;64187.78;5025784;28;20204;-73
2022/07/05 04:37:10;;;;;;;10.07;4.60;;;;;;;21.07;67.78;64183.03;5025328;28;20237;-76
2022/07/05 04:39:37;;;;;;;6.32;5.07;;;;;;;21.03;69.76;64176.28;5027273;28;20194;-74
2022/07/05 04:42:09;;;;;;;8.77;4.97;;;;;;;21.09;69.99;64179.44;5027347;28;20218;-74
2022/07/05 04:44:37;;;;;;;5.60;5.05;;;;;;;20.97;69.92;64172.06;5029176;28;20574;-77
2022/07/05 04:47:05;;;;;;;4.68;4.10;;;;;;;20.83;68.82;64155.38;5028185;28;20229;-73
2022/07/05 04:49:32;;;;;;;5.90;4.88;;;;;;;20.94;68.18;64168.91;5024674;28;20422;-75
2022/07/05 04:51:59;;;;;;;3.80;3.55;;;;;;;21.02;68.03;64177.31;5024556;28;20228;-74
2022/07/05 04:54:26;;;;;;;8.25;4.20;;;;;;;21.17;66.01;64192.97;5024378;28;20206;-74
2022/07/05 04:56:53;;;;;;;5.75;3.92;;;;;;;21.32;65.16;64208.63;5023713;28;20230;-74
2022/07/05 04:59:20;;;;;;;6.57;4.38;;;;;;;21.47;64.61;64221.69;5024150;28;20202;-74
2022/07/05 05:01:47;;;;;;;5.82;3.67;;;;;;;21.56;61.64;64231.63;5024648;28;20287;-75
2022/07/05 05:04:15;;;;;;;4.47;4.18;;;;;;;21.58;63.46;64228.53;5024100;28;20186;-73
2022/07/05 05:06:42;;;;;;;4.55;4.15;;;;;;;21.55;64.48;64230.06;5024386;28;20565;-73
2022/07/05 05:09:09;;;;;;;6.63;3.85;;;;;;;21.75;63.91;64254.09;5027173;28;20514;-74
2022/07/05 05:11:36;;;;;;;6.22;4.22;;;;;;;21.91;62.45;64269.78;5025118;28;20541;-74
2022/07/05 05:14:02;;;;;;;7.47;4.43;;;;;;;21.88;63.28;64261.44;5024591;28;20198;-73
2022/07/05 05:16:30;;;;;;;4.35;4.05;;;;;;;21.95;62.09;64273.94;5024864;28;20541;-75
2022/07/05 05:18:57;;;;;;;4.32;3.90;;;;;;;21.93;61.51;64274.44;5025124;28;20432;-74
2022/07/05 05:21:25;;;;;;;5.25;4.45;;;;;;;21.97;62.61;64276.03;5024728;28;20468;-74
2022/07/05 05:23:52;;;;;;;7.10;4.65;;;;;;;21.96;62.09;64275.53;5024947;28;20212;-74
2022/07/05 05:26:20;;;;;;;4.80;4.45;;;;;;;22.08;60.55;64282.34;5025141;28;20217;-73
2022/07/05 05:28:47;;;;;;;9.40;4.15;;;;;;;21.94;60.81;64270.31;5027216;28;20222;-73
2022/07/05 05:31:14;;;;;;;11.10;4.68;;;;;;;22.11;60.20;64286.00;5025794;28;20400;-73
2022/07/05 05:33:41;;;;;;;10.63;5.00;;;;;;;22.32;61.42;64315.22;5024361;28;20280;-74
2022/07/05 05:36:08;;;;;;;4.70;4.35;;;;;;;22.46;61.56;64327.25;5024151;28;20550;-74
2022/07/05 05:38:36;;;;;;;9.25;4.43;;;;;;;22.54;60.50;64335.63;5023836;28;20422;-74
2022/07/05 05:41:03;;;;;;;5.40;4.38;;;;;;;22.83;60.36;64365.97;5024053;28;20222;-74
2022/07/05 05:43:31;;;;;;;5.53;4.43;;;;;;;23.19;57.76;64403.09;5023850;28;20194;-75
2022/07/05 05:45:58;;;;;;;11.10;5.25;;;;;;;23.26;58.04;64413.00;5024229;28;20257;-73
2022/07/05 05:48:24;;;;;;;13.38;4.93;;;;;;;23.13;58.37;64399.41;5023709;28;20490;-73
2022/07/05 05:50:51;;;;;;;5.72;4.55;;;;;;;23.31;56.46;64413.06;5023870;28;20460;-73
2022/07/05 05:53:18;;;;;;;6.40;5.10;;;;;;;23.00;57.15;64380.63;5023243;28;20403;-73
2022/07/05 05:55:47;;;;;;;7.03;4.63;;;;;;;23.05;56.65;64391.56;5023631;28;20230;-73
2022/07/05 05:58:15;;;;;;;10.35;4.75;;;;;;;23.19;56.49;64401.03;5023967;28;20237;-73
2022/07/05 06:00:43;;;;;;;10.27;5.03;;;;;;;23.09;56.02;64390.53;5024086;28;20237;-75
2022/07/05 06:03:10;;;;;;;10.05;4.30;;;;;;;23.26;56.81;64407.81;5022854;28;20201;-74
2022/07/05 06:05:37;;;;;;;21.70;4.90;;;;;;;23.10;56.13;64391.06;5006140;28;20403;-73
2022/07/05 06:08:05;;;;;;;4.93;4.45;;;;;;;22.96;56.16;64376.97;5003687;28;20561;-73
2022/07/05 06:10:33;;;;;;;11.50;4.85;;;;;;;23.04;57.26;64384.81;5004128;28;20234;-74
2022/07/05 06:13:03;;;;;;;5.10;4.30;;;;;;;23.32;55.67;64414.09;5004935;28;20206;-75
2022/07/05 06:15:31;;;;;;;10.05;4.70;;;;;;;23.45;55.24;64432.91;5009236;28;20207;-74
2022/07/05 06:17:58;;;;;;;7.35;4.43;;;;;;;23.49;54.99;64434.50;5007315;28;20516;-74
2022/07/05 06:20:28;;;;;;;6.88;4.78;;;;;;;23.49;57.39;64437.09;5005149;28;20222;-74
2022/07/05 06:22:55;;;;;;;11.57;4.82;;;;;;;23.64;56.02;64452.78;5005436;28;20253;-73
2022/07/05 06:25:23;;;;;;;7.50;4.40;;;;;;;23.83;56.08;64472.69;5004051;28;20218;-73
2022/07/05 06:27:52;;;;;;;4.80;4.25;;;;;;;23.83;55.60;64473.19;5004366;28;20198;-74
2022/07/05 06:30:22;;;;;;;5.80;4.30;;;;;;;23.73;54.58;64462.19;5005949;28;20368;-73
2022/07/05 06:32:54;;;;;;;10.38;5.05;;;;;;;23.78;54.89;64464.84;5005263;28;20238;-75
2022/07/05 06:35:23;;;;;;;8.20;4.65;;;;;;;23.78;55.52;64462.25;5005452;28;20218;-74
2022/07/05 06:37:52;;;;;;;9.73;4.70;;;;;;;23.79;54.76;64463.81;5007318;28;20230;-74
2022/07/05 06:40:23;;;;;;;6.70;4.28;;;;;;;23.98;54.50;64483.16;5011515;28;20198;-76
2022/07/05 06:42:50;;;;;;;7.72;4.22;;;;;;;24.11;54.78;64499.38;5009298;28;20198;-74
2022/07/05 06:45:17;;;;;;;5.93;4.63;;;;;;;24.06;55.04;64493.66;5008676;28;20211;-76
2022/07/05 06:47:46;;;;;;;8.00;5.05;;;;;;;24.02;54.11;64490.50;5008925;28;20203;-76
2022/07/05 06:50:13;;;;;;;10.57;4.93;;;;;;;24.02;54.07;64484.25;5009205;28;20392;-74
2022/07/05 06:52:40;;;;;;;8.15;4.95;;;;;;;24.02;54.91;64487.38;5009125;28;20218;-73
2022/07/05 06:55:08;;;;;;;11.18;5.13;;;;;;;24.10;54.24;64497.81;5009135;28;20213;-77
2022/07/05 06:57:36;;;;;;;14.88;5.07;;;;;;;23.96;54.02;64483.69;5008671;28;20384;-75
2022/07/05 07:00:07;;;;;;;6.45;5.28;;;;;;;23.82;55.46;64466.94;5009488;28;20198;-78
2022/07/05 07:02:35;;;;;;;9.43;4.78;;;;;;;23.92;55.14;64480.00;5008573;28;20201;-73
2022/07/05 07:05:03;;;;;;;9.85;5.07;;;;;;;24.04;54.51;64491.56;5020131;28;20210;-74
2022/07/05 07:10:16;;;;;;;7.30;5.88;;;;;;;24.64;55.20;64551.75;5027547;28;20545;-74
2022/07/05 07:12:43;;;;;;;25.08;5.30;;;;;;;24.78;53.53;64571.66;5027789;28;20324;-74
2022/07/05 07:15:14;;;;;;;9.48;4.97;;;;;;;24.81;52.51;64572.72;5029101;28;20206;-75
2022/07/05 07:17:41;;;;;;;9.70;4.97;;;;;;;24.84;52.87;64575.84;5030349;28;20285;-75
2022/07/05 07:20:11;;;;;;;7.38;4.82;;;;;;;24.99;55.47;64591.03;5028784;28;20212;-75
2022/07/05 07:22:37;;;;;;;7.43;4.93;;;;;;;24.97;52.72;64591.56;5028642;28;20198;-75
2022/07/05 07:25:08;;;;;;;11.13;5.38;;;;;;;25.04;51.94;64594.19;5029254;28;20433;-72
2022/07/05 07:27:42;;;;;;;5.60;5.03;;;;;;;25.10;51.67;64603.09;5028521;28;20193;-74
2022/07/05 07:30:10;;;;;;;5.57;4.60;;;;;;;24.94;52.33;64591.00;5027099;28;20201;-74
2022/07/05 07:32:38;;;;;;;10.88;5.57;;;;;;;25.13;51.76;64605.69;5026959;28;20206;-74
2022/07/05 07:35:07;;;;;;;8.75;5.30;;;;;;;25.44;52.33;64635.09;5026216;28;20282;-75
2022/07/05 07:37:36;;;;;;;25.63;6.93;;;;;;;25.43;52.39;64641.84;5026199;28;20245;-73
2022/07/05 07:40:08;;;;;;;10.07;4.88;;;;;;;25.50;53.52;64644.50;5026619;28;20297;-78
2022/07/05 07:42:41;;;;;;;6.28;4.82;;;;;;;25.79;51.74;64680.09;5027762;28;20278;-76
2022/07/05 07:45:11;;;;;;;9.68;5.88;;;;;;;25.58;50.63;64654.94;5027747;28;20210;-76
2022/07/05 07:47:42;;;;;;;10.35;5.43;;;;;;;25.41;51.70;64631.91;5027512;28;20190;-78
2022/07/05 07:50:15;;;;;;;9.50;5.78;;;;;;;25.39;51.34;64632.44;5027354;28;20560;-78
2022/07/05 07:52:46;;;;;;;7.47;5.75;;;;;;;25.23;51.35;64618.28;5027421;28;20533;-77
2022/07/05 07:55:15;;;;;;;11.40;5.38;;;;;;;25.28;52.37;64621.44;5027452;28;20225;-74
2022/07/05 07:57:42;;;;;;;23.35;5.97;;;;;;;25.55;52.73;64643.97;5027234;28;20236;-74
2022/07/05 08:00:10;;;;;;;8.05;5.40;;;;;;;25.73;51.79;64668.59;5027437;28;20232;-76
2022/07/05 08:02:38;;;;;;;11.68;5.63;;;;;;;25.96;53.18;64690.09;5027222;28;20194;-76
2022/07/05 08:05:09;;;;;;;9.32;5.38;;;;;;;26.13;50.78;64715.75;5026781;28;20521;-75
2022/07/05 08:07:37;;;;;;;9.88;5.50;;;;;;;26.38;51.15;64735.69;5026835;28;20262;-75
2022/07/05 08:10:09;;;;;;;6.93;5.38;;;;;;;26.63;51.27;64762.44;5026872;28;20395;-76
2022/07/05 08:12:36;;;;;;;7.25;5.78;;;;;;;26.81;49.89;64778.19;5026856;28;20245;-78
2022/07/05 08:15:04;;;;;;;12.13;5.30;;;;;;;26.69;48.88;64765.63;5026568;28;20252;-78
2022/07/05 08:17:33;;;;;;;11.73;5.82;;;;;;;26.72;49.19;64776.59;5025931;28;20233;-77
2022/07/05 08:22:44;;;;;;;9.75;5.72;;;;;;;26.95;48.18;64798.13;5025639;28;20201;-73
2022/07/05 08:25:14;;;;;;;10.10;4.93;;;;;;;27.11;47.49;64810.19;5025414;28;20194;-76
2022/07/05 08:27:41;;;;;;;6.20;5.30;;;;;;;27.15;48.59;64817.00;5025425;28;20221;-74
2022/07/05 08:30:11;;;;;;;9.40;5.18;;;;;;;27.34;47.25;64833.81;5025374;28;20245;-76
2022/07/05 08:32:41;;;;;;;7.43;5.53;;;;;;;27.32;48.03;64833.81;5026365;28;20202;-77
2022/07/05 08:35:10;;;;;;;15.15;6.55;;;;;;;27.37;47.20;64839.56;5026545;28;20266;-78
2022/07/05 08:37:41;;;;;;;10.68;5.88;;;;;;;27.63;46.70;64864.25;5026580;28;20233;-76
2022/07/05 08:40:13;;;;;;;6.43;4.53;;;;;;;27.86;46.76;64893.63;5027857;28;20233;-78
2022/07/05 08:42:45;;;;;;;14.70;5.15;;;;;;;27.96;48.30;64901.53;5029402;28;20194;-78
2022/07/05 08:45:17;;;;;;;10.18;5.35;;;;;;;28.20;47.08;64926.19;5027787;28;20198;-79
2022/07/05 08:47:50;;;;;;;9.65;5.20;;;;;;;28.18;45.63;64927.22;5027185;28;20445;-76
2022/07/05 08:50:22;;;;;;;9.50;5.25;;;;;;;28.00;45.27;64902.56;5026964;28;20325;-78
2022/07/05 08:52:53;;;;;;;5.82;5.32;;;;;;;27.99;45.62;64909.91;5027509;28;20205;-75
2022/07/05 08:55:21;;;;;;;10.25;5.30;;;;;;;28.00;47.97;64899.97;5025280;28;20202;-74
2022/07/05 08:57:49;;;;;;;12.38;5.20;;;;;;;28.03;47.31;64905.72;5025734;28;20230;-74
2022/07/05 09:00:16;;;;;;;8.63;5.03;;;;;;;28.36;46.42;64945.59;5024830;28;20205;-74
2022/07/05 09:02:43;;;;;;;6.20;5.28;;;;;;;28.69;46.38;64969.28;5025579;28;20200;-74
2022/07/05 09:05:14;;;;;;;9.40;5.95;;;;;;;28.92;44.65;65001.31;5025655;28;20205;-75
2022/07/05 09:07:49;;;;;;;5.80;5.22;;;;;;;29.10;45.68;65015.50;5025479;28;20202;-73
2022/07/05 09:10:20;;;;;;;7.90;5.90;;;;;;;29.22;44.24;65033.34;5025404;28;20211;-75
2022/07/05 09:12:49;;;;;;;7.07;5.30;;;;;;;29.16;43.77;65029.16;5025898;28;20190;-74
2022/07/05 09:15:16;;;;;;;12.95;5.20;;;;;;;29.31;41.89;65042.28;5024501;28;20240;-74
2022/07/05 09:17:44;;;;;;;8.43;5.28;;;;;;;29.33;42.21;65044.41;5024982;28;20482;-75
2022/07/05 09:20:19;;;;;;;5.95;5.35;;;;;;;29.41;43.33;65052.78;5026223;28;20193;-75
2022/07/05 09:22:52;;;;;;;11.23;5.05;;;;;;;29.50;42.91;65062.25;5034053;28;20194;-74
2022/07/05 09:25:23;;;;;;;7.18;4.60;;;;;;;29.73;43.58;65088.56;5031771;28;20247;-74
2022/07/05 09:27:54;;;;;;;6.15;5.18;;;;;;;29.89;41.28;65103.25;5030245;28;20202;-75
2022/07/05 09:30:30;;;;;;;6.78;5.07;;;;;;;30.12;40.95;65124.28;5030808;28;20217;-74
2022/07/05 09:33:04;;;;;;;5.28;4.53;;;;;;;30.25;40.97;65146.38;5031798;28;20240;-74
2022/07/05 09:35:32;;;;;;;5.85;5.00;;;;;;;30.28;40.09;65138.50;5032996;28;20216;-73
2022/07/05 09:37:59;;;;;;;5.05;4.60;;;;;;;30.12;41.57;65124.81;5030644;28;20229;-74
2022/07/05 09:40:26;;;;;;;8.43;4.53;;;;;;;30.33;41.88;65149.03;5029840;28;20237;-74
2022/07/05 09:43:11;;;;;;;5.65;5.20;;;;;;;30.33;39.98;65152.19;5033132;28;20197;-74
2022/07/05 09:45:38;;;;;;;6.97;5.30;;;;;;;30.04;41.82;65115.88;5034745;28;20285;-73
2022/07/05 09:48:08;;;;;;;6.72;4.82;;;;;;;30.09;42.76;65126.94;5033651;28;20194;-74
2022/07/05 09:50:36;;;;;;;7.07;4.70;;;;;;;30.13;43.03;65130.59;5032557;28;20218;-75
2022/07/05 09:53:04;;;;;;;10.00;5.40;;;;;;;30.09;42.12;65124.31;5028940;28;20217;-74
2022/07/05 09:55:32;;;;;;;6.22;4.97;;;;;;;30.32;42.92;65145.84;5024784;28;20218;-74
2022/07/05 09:58:00;;;;;;;9.80;5.07;;;;;;;30.28;42.94;65151.66;5024503;28;20249;-74
2022/07/05 10:00:29;;;;;;;5.32;4.40;;;;;;;30.61;43.49;65175.84;5023784;28;20519;-75
2022/07/05 10:03:01;;;;;;;6.65;4.38;;;;;;;30.80;43.60;65198.47;5023777;28;20209;-75
2022/07/05 10:05:31;;;;;;;5.35;4.97;;;;;;;30.98;44.61;65216.88;5023773;28;20222;-73
2022/07/05 10:07:59;;;;;;;5.78;4.82;;;;;;;31.12;43.11;65236.88;5023843;28;20198;-75
2022/07/05 10:10:28;;;;;;;5.18;4.70;;;;;;;31.29;43.50;65255.28;5023492;28;20218;-76
2022/07/05 10:12:58;;;;;;;5.38;4.63;;;;;;;31.39;43.21;65257.41;5023707;28;20524;-75
2022/07/05 10:15:28;;;;;;;8.75;5.68;;;;;;;31.40;42.95;65258.97;5023788;28;20241;-74
2022/07/05 10:18:00;;;;;;;8.05;5.93;;;;;;;31.20;41.46;65240.03;5024740;28;20236;-75
2022/07/05 10:20:34;;;;;;;6.75;5.25;;;;;;;31.18;45.45;65238.44;5023665;28;20225;-75
2022/07/05 10:23:03;;;;;;;5.82;5.43;;;;;;;31.27;44.43;65244.75;5024540;28;20225;-74
2022/07/05 10:25:31;;;;;;;5.40;4.97;;;;;;;31.47;43.68;65274.25;5024653;28;20232;-74
2022/07/05 10:27:59;;;;;;;5.90;5.40;;;;;;;31.55;43.41;65276.88;5024002;28;20502;-74
2022/07/05 10:30:28;;;;;;;8.07;4.72;;;;;;;31.46;41.63;65270.56;5023619;28;20209;-75
2022/07/05 10:32:56;;;;;;;7.43;5.10;;;;;;;31.60;43.05;65282.13;5024327;28;20201;-74
2022/07/05 10:35:24;;;;;;;5.05;4.55;;;;;;;31.75;44.49;65297.91;5026582;28;20236;-75
2022/07/05 10:37:52;;;;;;;7.20;4.63;;;;;;;31.75;43.07;65300.56;5026216;28;20213;-74
2022/07/05 10:40:19;;;;;;;5.07;4.57;;;;;;;31.86;42.69;65311.63;5024004;28;20244;-74
2022/07/05 10:42:49;;;;;;;5.30;4.80;;;;;;;31.94;42.24;65320.56;5023796;28;20390;-75
2022/07/05 10:45:31;;;;;;;5.15;4.68;;;;;;;32.08;42.00;65332.16;5024230;28;20206;-74
2022/07/05 10:48:18;;;;;;;9.10;4.93;;;;;;;32.16;41.25;65340.56;5024041;28;20197;-74
2022/07/05 10:50:55;;;;;;;5.95;4.50;;;;;;;32.17;41.18;65341.63;5023543;28;20214;-74
2022/07/05 10:53:24;;;;;;;5.68;4.75;;;;;;;32.23;43.58;65350.56;5024221;28;20395;-75
2022/07/05 10:55:56;;;;;;;9.38;5.50;;;;;;;32.18;40.39;65340.56;5023193;28;20546;-75
2022/07/05 10:58:34;;;;;;;7.13;4.78;;;;;;;32.36;40.75;65364.78;5023708;28;20225;-75
2022/07/05 11:01:43;;;;;;;7.72;4.90;;;;;;;32.43;40.34;65366.91;5024945;28;20264;-74
2022/07/05 11:04:34;;;;;;;6.63;5.32;;;;;;;32.49;38.07;65378.50;5023424;28;20194;-74
2022/07/05 11:07:01;;;;;;;5.90;5.43;;;;;;;32.47;39.25;65373.75;5023099;28;20273;-74
2022/07/05 11:09:28;;;;;;;6.10;5.30;;;;;;;32.49;38.61;65375.34;5022943;28;20202;-74
2022/07/05 11:12:13;;;;;;;7.22;5.15;;;;;;;32.59;39.34;65385.88;5023083;28;20218;-73
2022/07/05 11:14:47;;;;;;;7.00;5.10;;;;;;;32.65;38.17;65390.06;5023314;28;20198;-75
2022/07/05 11:17:26;;;;;;;6.93;4.65;;;;;;;32.59;38.85;65385.88;5022503;28;20217;-74
2022/07/05 11:20:27;;;;;;;6.35;5.57;;;;;;;32.31;38.05;65356.88;5023218;28;20272;-76
2022/07/05 11:23:11;;;;;;;5.70;5.20;;;;;;;32.45;39.23;65371.13;5023326;28;20374;-74
2022/07/05 11:25:41;;;;;;;8.02;4.68;;;;;;;32.22;37.96;65344.78;5027148;28;20390;-76
2022/07/05 11:28:13;;;;;;;5.07;4.88;;;;;;;32.19;38.83;65344.25;5026853;28;20204;-74
2022/07/05 11:31:01;;;;;;;7.28;5.55;;;;;;;32.41;36.00;65366.91;5027678;28;20226;-75
2022/07/05 11:33:30;;;;;;;6.53;4.80;;;;;;;32.47;37.79;65375.88;5024350;28;20204;-74
2022/07/05 11:35:59;;;;;;;5.65;5.15;;;;;;;32.31;36.83;65361.63;5028462;28;20284;-73
2022/07/05 11:38:27;;;;;;;5.22;4.85;;;;;;;32.46;36.77;65372.19;5028902;28;20200;-72
2022/07/05 11:40:54;;;;;;;5.97;5.30;;;;;;;32.77;37.34;65402.69;5028205;28;20226;-75
2022/07/05 11:43:28;;;;;;;4.43;4.13;;;;;;;32.74;34.87;65399.00;5028335;28;20218;-74
2022/07/05 11:45:59;;;;;;;4.63;4.22;;;;;;;32.77;35.56;65402.69;5027641;28;20217;-76
2022/07/05 11:48:28;;;;;;;5.68;5.10;;;;;;;32.82;36.89;65409.56;5027185;28;20236;-74